Time;durP1;ratioP1;P1;durP2;ratioP2;P2;SDS_P1;SDS_P2;PMS_P1;PMS_P2;Temp;Humidity;BMP_temperature;BMP_pressure;BME280_temperature;BME280_humidity;BME280_pressure;Samples;Min_cycle;Max_cycle;Signal;HPM_P1;HPM_P2
2022/12/10 00:00:21;;;;;;;198.38;42.03;;;;;;;-0.63;100.00;100765.53;5067633;28;20079;-39
2022/12/10 00:02:46;;;;;;;191.13;43.22;;;;;;;-0.65;100.00;100764.84;5064290;28;20016;-40
2022/12/10 00:05:11;;;;;;;199.35;42.70;;;;;;;-0.71;100.00;100766.09;5055730;28;20410;-40
2022/12/10 00:07:37;;;;;;;188.27;45.13;;;;;;;-0.73;100.00;100760.94;5049442;28;20044;-40
2022/12/10 00:10:02;;;;;;;184.73;43.67;;;;;;;-0.76;100.00;100769.09;5066202;28;20491;-39
2022/12/10 00:12:28;;;;;;;182.55;42.58;;;;;;;-0.78;100.00;100772.81;5050690;28;20472;-40
2022/12/10 00:14:53;;;;;;;208.00;46.00;;;;;;;-0.80;100.00;100774.72;5050763;28;20017;-39
2022/12/10 00:17:18;;;;;;;208.68;47.67;;;;;;;-0.80;100.00;100775.56;5051013;28;20023;-40
2022/12/10 00:19:44;;;;;;;187.65;44.05;;;;;;;-0.75;100.00;100772.59;5066088;28;20163;-41
2022/12/10 00:22:09;;;;;;;198.65;44.97;;;;;;;-0.71;100.00;100768.75;5054997;28;20045;-40
2022/12/10 00:24:35;;;;;;;186.15;43.97;;;;;;;-0.69;100.00;100772.13;5060934;28;20035;-41
2022/12/10 00:27:00;;;;;;;182.35;44.72;;;;;;;-0.72;100.00;100765.25;5056551;28;20048;-40
2022/12/10 00:29:25;;;;;;;195.18;45.30;;;;;;;-0.75;100.00;100765.50;5051757;28;20032;-39
2022/12/10 00:31:51;;;;;;;175.35;43.22;;;;;;;-0.77;100.00;100770.03;5065935;28;20075;-39
2022/12/10 00:34:16;;;;;;;193.70;45.63;;;;;;;-0.80;100.00;100770.25;5058739;28;20028;-39
2022/12/10 00:36:44;;;;;;;171.80;42.40;;;;;;;-0.79;100.00;100771.97;5054700;28;20158;-37
2022/12/10 00:39:11;;;;;;;192.23;45.05;;;;;;;-0.80;100.00;100775.56;5059647;28;20376;-40
2022/12/10 00:41:36;;;;;;;184.82;42.70;;;;;;;-0.79;100.00;100771.09;5068695;28;20035;-39
2022/12/10 00:44:02;;;;;;;180.90;43.03;;;;;;;-0.79;100.00;100771.97;5070365;28;20032;-40
2022/12/10 00:46:28;;;;;;;196.85;44.78;;;;;;;-0.76;100.00;100776.19;5070689;28;20527;-37
2022/12/10 00:48:53;;;;;;;183.13;42.88;;;;;;;-0.74;100.00;100775.13;5070438;28;20036;-39
2022/12/10 00:51:21;;;;;;;169.55;44.17;;;;;;;-0.71;100.00;100780.19;5056438;28;20029;-38
2022/12/10 00:53:47;;;;;;;;;;;;;;;-0.64;100.00;100774.44;5069687;28;20031;-40
2022/12/10 00:56:14;;;;;;;180.25;40.42;;;;;;;-0.62;100.00;100772.53;5060848;28;20354;-40
2022/12/10 00:58:40;;;;;;;171.80;42.15;;;;;;;-0.68;100.00;100774.69;5050243;28;20113;-39
2022/12/10 01:01:17;;;;;;;174.50;42.78;;;;;;;-0.67;100.00;100775.50;5061757;28;20163;-41
2022/12/10 01:03:43;;;;;;;170.18;41.80;;;;;;;-0.62;100.00;100783.94;5051541;28;20051;-40
2022/12/10 01:06:16;;;;;;;177.90;43.78;;;;;;;-0.61;100.00;100779.50;5050108;28;20488;-39
2022/12/10 01:08:42;;;;;;;164.18;41.67;;;;;;;-0.60;100.00;100783.84;5050074;28;20104;-39
2022/12/10 01:11:10;;;;;;;168.32;46.00;;;;;;;-0.61;100.00;100787.44;5060518;28;20479;-40
2022/12/10 01:13:35;;;;;;;175.30;42.05;;;;;;;-0.57;100.00;100787.09;5068259;28;20485;-39
2022/12/10 01:16:02;;;;;;;167.95;41.60;;;;;;;-0.58;100.00;100797.78;5070125;28;20115;-39
2022/12/10 01:18:27;;;;;;;186.13;44.90;;;;;;;-0.58;100.00;100790.72;5069903;28;20028;-38
2022/12/10 01:20:53;;;;;;;161.45;42.15;;;;;;;-0.53;100.00;100798.28;5069042;28;20055;-40
2022/12/10 01:23:18;;;;;;;156.52;42.22;;;;;;;-0.57;100.00;100796.84;5069462;28;20103;-37
2022/12/10 01:25:44;;;;;;;179.30;42.05;;;;;;;-0.57;100.00;100795.03;5065152;28;20047;-38
2022/12/10 01:28:09;;;;;;;169.40;42.45;;;;;;;-0.56;100.00;100793.22;5049978;28;20079;-40
2022/12/10 01:30:35;;;;;;;173.55;45.50;;;;;;;-0.54;100.00;100786.03;5057915;28;20483;-40
2022/12/10 01:33:00;;;;;;;166.77;44.58;;;;;;;-0.59;100.00;100790.81;5057498;28;20036;-39
2022/12/10 01:35:25;;;;;;;172.98;44.50;;;;;;;-0.55;100.00;100790.50;5049923;28;20021;-37
2022/12/10 01:37:51;;;;;;;166.88;43.88;;;;;;;-0.54;100.00;100797.44;5055409;28;20384;-40
2022/12/10 01:40:16;;;;;;;165.23;43.92;;;;;;;-0.53;100.00;100800.94;5063750;28;20078;-39
2022/12/10 01:42:42;;;;;;;172.82;46.05;;;;;;;-0.54;100.00;100807.19;5060309;28;20033;-40
2022/12/10 01:45:10;;;;;;;185.40;49.03;;;;;;;-0.53;100.00;100800.94;5054999;28;20032;-37
2022/12/10 01:47:36;;;;;;;202.93;47.05;;;;;;;-0.53;100.00;100808.88;5061273;28;20090;-39
2022/12/10 01:50:02;;;;;;;178.57;44.97;;;;;;;-0.55;100.00;100808.16;5061731;28;20025;-37
2022/12/10 01:52:28;;;;;;;190.57;46.97;;;;;;;-0.57;100.00;100813.53;5057144;28;20059;-40
2022/12/10 01:54:53;;;;;;;171.65;45.00;;;;;;;-0.55;100.00;100805.50;5058448;28;20477;-37
2022/12/10 01:57:21;;;;;;;189.90;47.42;;;;;;;-0.56;100.00;100811.75;5068896;28;20029;-38
2022/12/10 01:59:48;;;;;;;;;;;;;;;-0.57;100.00;100808.25;5068147;28;20116;-37
2022/12/10 02:02:13;;;;;;;176.77;44.78;;;;;;;-0.54;100.00;100812.47;5067782;28;19912;-37
2022/12/10 02:05:09;;;;;;;177.20;45.75;;;;;;;-0.49;100.00;100810.34;5055216;28;20494;-38
2022/12/10 02:08:19;;;;;;;182.77;45.50;;;;;;;-0.45;100.00;100823.25;5049567;28;20029;-38
2022/12/10 02:11:17;;;;;;;254.05;47.75;;;;;;;-0.46;100.00;100810.13;5054655;28;20033;-37
2022/12/10 02:13:43;;;;;;;232.38;50.05;;;;;;;-0.49;100.00;100810.34;5049314;28;20462;-38
2022/12/10 02:16:15;;;;;;;235.68;49.17;;;;;;;-0.50;100.00;100813.94;5049483;28;20025;-39
2022/12/10 02:18:46;;;;;;;220.27;49.78;;;;;;;-0.50;100.00;100808.63;5047742;28;20040;-39
2022/12/10 02:21:34;;;;;;;228.57;49.08;;;;;;;-0.49;100.00;100805.91;5061366;28;20543;-38
2022/12/10 02:24:02;;;;;;;184.07;46.13;;;;;;;-0.46;100.00;100800.38;5048448;28;20028;-37
2022/12/10 02:26:41;;;;;;;220.38;49.25;;;;;;;-0.42;100.00;100800.16;5061067;28;20495;-37
2022/12/10 02:29:15;;;;;;;198.88;49.17;;;;;;;-0.39;100.00;100806.06;5070249;28;20029;-37
2022/12/10 02:31:45;;;;;;;252.65;51.72;;;;;;;-0.41;100.00;100802.69;5053035;28;20516;-37
2022/12/10 02:34:12;;;;;;;189.32;46.72;;;;;;;-0.36;100.00;100805.00;5049220;28;20365;-40
2022/12/10 02:36:39;;;;;;;188.40;45.08;;;;;;;-0.38;100.00;100801.63;5050761;28;20391;-39
2022/12/10 02:39:07;;;;;;;186.52;43.60;;;;;;;-0.36;100.00;100797.06;5051370;28;20029;-39
2022/12/10 02:41:40;;;;;;;238.02;48.65;;;;;;;-0.39;100.00;100800.78;5062001;28;20024;-38
2022/12/10 02:44:08;;;;;;;316.42;48.85;;;;;;;-0.48;100.00;100801.44;5061529;28;20051;-39
2022/12/10 02:46:35;;;;;;;230.85;43.28;;;;;;;-0.47;100.00;100796.06;5066865;28;20016;-38
2022/12/10 02:49:02;;;;;;;221.35;43.25;;;;;;;-0.50;100.00;100793.66;5052111;28;20033;-38
2022/12/10 02:51:27;;;;;;;250.77;45.00;;;;;;;-0.46;100.00;100796.91;5055500;28;20020;-38
2022/12/10 02:54:06;;;;;;;220.65;46.42;;;;;;;-0.48;100.00;100791.72;5052669;28;20027;-39
2022/12/10 02:56:46;;;;;;;302.58;47.65;;;;;;;-0.50;100.00;100793.66;5055014;28;20035;-38
2022/12/10 02:59:33;;;;;;;365.08;56.15;;;;;;;-0.53;100.00;100785.91;5071228;28;20025;-39
2022/12/10 03:02:29;;;;;;;221.82;44.08;;;;;;;-0.57;100.00;100791.56;5051832;28;20041;-37
2022/12/10 03:04:58;;;;;;;343.30;44.75;;;;;;;-0.58;100.00;100795.13;5051027;28;20055;-40
2022/12/10 03:07:25;;;;;;;;;;;;;;;-0.61;100.00;100796.19;5068711;28;20036;-39
2022/12/10 03:09:59;;;;;;;327.05;50.28;;;;;;;-0.62;100.00;100788.41;5063188;28;19912;-37
2022/12/10 03:12:38;;;;;;;388.48;47.92;;;;;;;-0.62;100.00;100791.88;5059847;28;20134;-38
2022/12/10 03:15:07;;;;;;;261.80;41.92;;;;;;;-0.65;100.00;100783.34;5070709;28;20074;-37
2022/12/10 03:17:33;;;;;;;258.27;43.90;;;;;;;-0.64;100.00;100782.38;5070407;28;20024;-38
2022/12/10 03:19:59;;;;;;;289.15;45.10;;;;;;;-0.63;100.00;100791.97;5069443;28;20036;-39
2022/12/10 03:22:24;;;;;;;217.85;44.58;;;;;;;-0.61;100.00;100795.38;5059554;28;20045;-39
2022/12/10 03:24:50;;;;;;;335.00;47.28;;;;;;;-0.61;100.00;100800.66;5059287;28;20539;-39
2022/12/10 03:27:19;;;;;;;248.07;44.88;;;;;;;-0.64;100.00;100795.59;5051560;28;20120;-40
2022/12/10 03:29:48;;;;;;;466.00;49.00;;;;;;;-0.67;100.00;100794.84;5051758;28;20056;-37
2022/12/10 03:32:15;;;;;;;227.00;42.75;;;;;;;-0.62;100.00;100789.25;5047616;28;20029;-40
2022/12/10 03:34:42;;;;;;;223.43;44.72;;;;;;;-0.59;100.00;100785.53;5070258;28;20314;-39
2022/12/10 03:37:08;;;;;;;234.38;44.47;;;;;;;-0.55;100.00;100792.28;5069044;28;20031;-38
2022/12/10 03:39:33;;;;;;;285.35;44.67;;;;;;;-0.51;100.00;100796.38;5056316;28;20372;-40
2022/12/10 03:41:59;;;;;;;223.18;42.40;;;;;;;-0.51;100.00;100804.31;5057521;28;20498;-39
2022/12/10 03:44:30;;;;;;;275.80;46.88;;;;;;;-0.52;100.00;100792.91;5058671;28;20037;-38
2022/12/10 03:46:55;;;;;;;321.90;48.03;;;;;;;-0.53;100.00;100800.94;5061879;28;20479;-39
2022/12/10 03:49:20;;;;;;;373.30;48.45;;;;;;;-0.50;100.00;100798.94;5051632;28;20032;-40
2022/12/10 03:51:46;;;;;;;315.00;45.72;;;;;;;-0.51;100.00;100802.50;5059944;28;20029;-38
2022/12/10 03:54:11;;;;;;;307.85;48.15;;;;;;;-0.53;100.00;100798.28;5060301;28;20055;-39
2022/12/10 03:56:37;;;;;;;298.85;42.78;;;;;;;-0.54;100.00;100791.34;5063854;28;20064;-38
2022/12/10 03:59:02;;;;;;;251.38;43.88;;;;;;;-0.52;100.00;100807.94;5071293;28;20359;-39
2022/12/10 04:01:27;;;;;;;308.95;46.20;;;;;;;-0.56;100.00;100801.16;5055983;28;20078;-39
2022/12/10 04:03:53;;;;;;;343.70;41.85;;;;;;;-0.61;100.00;100795.38;5055594;28;20040;-39
2022/12/10 04:06:19;;;;;;;451.42;49.30;;;;;;;-0.61;100.00;100800.66;5070924;28;20021;-39
2022/12/10 04:08:45;;;;;;;275.77;44.28;;;;;;;-0.60;100.00;100805.00;5071299;28;20475;-38
2022/12/10 04:11:12;;;;;;;267.20;41.47;;;;;;;-0.55;100.00;100803.72;5059720;28;20036;-37
2022/12/10 04:16:26;;;;;;;491.73;53.53;;;;;;;-0.53;100.00;100806.22;5069804;28;20059;-37
2022/12/10 04:18:51;;;;;;;325.90;48.72;;;;;;;-0.51;100.00;100799.03;5069510;28;20115;-38
2022/12/10 04:26:54;;;;;;;500.13;51.63;;;;;;;-0.55;100.00;100808.16;5063407;28;20113;-39
2022/12/10 04:29:22;;;;;;;277.23;45.13;;;;;;;-0.54;100.00;100805.38;5070815;28;20124;-37
2022/12/10 04:31:47;;;;;;;239.43;45.40;;;;;;;-0.52;100.00;100810.56;5072394;28;20534;-40
2022/12/10 04:34:12;;;;;;;204.25;43.25;;;;;;;-0.53;100.00;100812.34;5055293;28;20037;-39
2022/12/10 04:36:38;;;;;;;350.35;43.85;;;;;;;-0.48;100.00;100797.00;5051349;28;20130;-38
2022/12/10 04:39:03;;;;;;;456.10;50.97;;;;;;;-0.47;100.00;100808.44;5052112;28;20047;-39
2022/12/10 04:41:29;;;;;;;268.10;44.83;;;;;;;-0.47;100.00;100809.28;5057088;28;20036;-39
2022/12/10 04:43:54;;;;;;;377.27;47.20;;;;;;;-0.51;100.00;100804.31;5069416;28;20169;-37
2022/12/10 04:46:20;;;;;;;238.48;41.55;;;;;;;-0.52;100.00;100806.13;5070119;28;20036;-37
2022/12/10 04:48:45;;;;;;;205.77;41.60;;;;;;;-0.50;100.00;100809.50;5070300;28;20028;-40
2022/12/10 04:51:11;;;;;;;207.13;40.65;;;;;;;-0.47;100.00;100811.09;5070079;28;20116;-39
2022/12/10 04:53:36;;;;;;;259.17;43.58;;;;;;;-0.49;100.00;100807.69;5068512;28;20483;-37
2022/12/10 04:56:04;;;;;;;229.98;42.40;;;;;;;-0.51;100.00;100806.97;5063149;28;20033;-37
2022/12/10 04:58:30;;;;;;;175.80;40.72;;;;;;;-0.48;100.00;100806.72;5067955;28;20104;-38
2022/12/10 05:01:07;;;;;;;337.15;43.22;;;;;;;-0.34;100.00;100809.22;5070107;28;20056;-37
2022/12/10 05:03:32;;;;;;;228.73;43.47;;;;;;;-0.39;100.00;100816.66;5069583;28;20075;-37
2022/12/10 05:06:07;;;;;;;489.85;50.17;;;;;;;-0.45;100.00;100820.59;5069413;28;20099;-39
2022/12/10 05:08:33;;;;;;;296.80;42.35;;;;;;;-0.54;100.00;100809.84;5070296;28;20028;-37
2022/12/10 05:11:03;;;;;;;238.73;38.03;;;;;;;-0.60;100.00;100802.34;5069454;28;20112;-39
2022/12/10 05:13:29;;;;;;;244.98;38.70;;;;;;;-0.57;100.00;100807.41;5059808;28;20036;-39
2022/12/10 05:15:54;;;;;;;424.55;48.03;;;;;;;-0.64;100.00;100812.28;5060774;28;20053;-39
2022/12/10 05:18:19;;;;;;;213.80;38.17;;;;;;;-0.69;100.00;100809.97;5050294;28;20029;-38
2022/12/10 05:20:45;;;;;;;348.58;42.00;;;;;;;-0.62;100.00;100804.25;5049887;28;20036;-38
2022/12/10 05:23:28;;;;;;;454.48;45.00;;;;;;;-0.66;100.00;100806.25;5050110;28;20040;-37
2022/12/10 05:26:06;;;;;;;221.07;36.72;;;;;;;-0.73;100.00;100797.94;5051060;28;20032;-38
2022/12/10 05:28:35;;;;;;;199.95;37.88;;;;;;;-0.77;100.00;100796.47;5048912;28;20053;-37
2022/12/10 05:31:00;;;;;;;;;;;;;;;-0.74;100.00;100805.97;5055955;28;20027;-38
2022/12/10 05:33:26;;;;;;;163.25;34.60;;;;;;;-0.72;100.00;100799.63;5051137;28;19916;-37
2022/12/10 05:35:57;;;;;;;210.98;37.95;;;;;;;-0.69;100.00;100804.69;5055075;28;20086;-39
2022/12/10 05:38:22;;;;;;;230.32;38.08;;;;;;;-0.65;100.00;100794.75;5064688;28;20089;-37
2022/12/10 05:40:48;;;;;;;201.18;36.90;;;;;;;-0.59;100.00;100798.75;5061768;28;20479;-38
2022/12/10 05:43:13;;;;;;;194.52;38.85;;;;;;;-0.61;100.00;100804.13;5060203;28;20029;-38
2022/12/10 05:45:38;;;;;;;188.15;37.00;;;;;;;-0.66;100.00;100803.63;5067513;28;20016;-37
2022/12/10 05:48:04;;;;;;;212.95;35.88;;;;;;;-0.70;100.00;100808.28;5057866;28;20074;-40
2022/12/10 05:50:31;;;;;;;229.88;36.95;;;;;;;-0.79;100.00;100797.53;5047991;28;20060;-37
2022/12/10 05:52:57;;;;;;;444.00;44.88;;;;;;;-0.77;100.00;100807.03;5047490;28;20033;-36
2022/12/10 05:55:23;;;;;;;200.07;35.50;;;;;;;-0.77;100.00;100801.75;5066621;28;20044;-38
2022/12/10 05:57:48;;;;;;;360.55;40.72;;;;;;;-0.83;100.00;100801.34;5067869;28;20020;-40
2022/12/10 06:00:14;;;;;;;259.83;35.85;;;;;;;-0.77;100.00;100804.38;5058073;28;20061;-37
2022/12/10 06:02:39;;;;;;;295.02;44.97;;;;;;;-0.79;100.00;100806.31;5067779;28;20055;-39
2022/12/10 06:05:05;;;;;;;239.68;33.90;;;;;;;-0.89;100.00;100810.56;5067103;28;20032;-37
2022/12/10 06:07:30;;;;;;;262.85;34.95;;;;;;;-0.97;100.00;100805.00;5056007;28;20174;-40
2022/12/10 06:09:56;;;;;;;443.40;45.38;;;;;;;-0.97;100.00;100815.56;5049218;28;20075;-39
2022/12/10 06:12:21;;;;;;;265.48;38.50;;;;;;;-0.97;100.00;100810.28;5070135;28;20147;-39
2022/12/10 06:14:47;;;;;;;228.80;34.60;;;;;;;-0.92;100.00;100810.78;5069881;28;20024;-39
2022/12/10 06:17:12;;;;;;;244.90;35.55;;;;;;;-0.90;100.00;100811.50;5071391;28;20661;-37
2022/12/10 06:19:37;;;;;;;174.48;33.90;;;;;;;-0.85;100.00;100814.66;5057062;28;20083;-37
2022/12/10 06:22:02;;;;;;;215.18;36.63;;;;;;;-0.88;100.00;100820.19;5066998;28;20469;-38
2022/12/10 06:24:29;;;;;;;196.02;35.00;;;;;;;-0.86;100.00;100814.78;5071285;28;20371;-36
2022/12/10 06:26:54;;;;;;;210.70;34.90;;;;;;;-0.88;100.00;100818.38;5071175;28;20079;-37
2022/12/10 06:29:19;;;;;;;234.57;35.17;;;;;;;-0.88;100.00;100810.44;5069158;28;20035;-37
2022/12/10 06:31:45;;;;;;;201.07;35.13;;;;;;;-0.82;100.00;100819.72;5066018;28;20074;-40
2022/12/10 06:34:10;;;;;;;277.58;42.40;;;;;;;-0.87;100.00;100827.13;5053773;28;20047;-38
2022/12/10 06:36:35;;;;;;;178.75;34.28;;;;;;;-0.80;100.00;100828.41;5055351;28;20032;-39
2022/12/10 06:39:02;;;;;;;199.35;35.63;;;;;;;-0.78;100.00;100825.66;5061157;28;20099;-39
2022/12/10 06:41:27;;;;;;;156.13;36.75;;;;;;;-0.75;100.00;100830.72;5057877;28;20028;-39
2022/12/10 06:43:52;;;;;;;191.27;36.55;;;;;;;-0.69;100.00;100835.56;5068631;28;20040;-38
2022/12/10 06:46:20;;;;;;;186.43;39.75;;;;;;;-0.68;100.00;100834.63;5054967;28;20032;-41
2022/12/10 06:48:46;;;;;;;230.88;40.50;;;;;;;-0.67;100.00;100845.06;5048632;28;20029;-39
2022/12/10 06:51:12;;;;;;;153.52;36.95;;;;;;;-0.63;100.00;100837.78;5057963;28;20035;-39
2022/12/10 06:53:38;;;;;;;148.30;38.45;;;;;;;-0.47;100.00;100840.16;5057038;28;20035;-37
2022/12/10 06:56:05;;;;;;;218.55;41.63;;;;;;;-0.41;100.00;100847.66;5062778;28;20033;-39
2022/12/10 06:58:31;;;;;;;210.00;44.53;;;;;;;-0.51;100.00;100849.25;5070495;28;20028;-37
2022/12/10 07:01:11;;;;;;;234.02;38.88;;;;;;;-0.47;100.00;100843.66;5070809;28;20130;-37
2022/12/10 07:03:37;;;;;;;224.18;38.75;;;;;;;-0.41;100.00;100850.28;5069767;28;20047;-38
2022/12/10 07:06:04;;;;;;;205.55;39.60;;;;;;;-0.48;100.00;100855.16;5069014;28;20029;-40
2022/12/10 07:08:29;;;;;;;204.95;39.40;;;;;;;-0.44;100.00;100861.09;5070320;28;20040;-39
2022/12/10 07:10:55;;;;;;;217.07;40.53;;;;;;;-0.48;100.00;100852.50;5073832;28;20028;-37
2022/12/10 07:13:21;;;;;;;155.88;37.05;;;;;;;-0.45;100.00;100847.03;5071477;28;20778;-37
2022/12/10 07:15:47;;;;;;;187.20;40.75;;;;;;;-0.48;100.00;100849.03;5067492;28;20036;-39
2022/12/10 07:18:12;;;;;;;190.45;40.47;;;;;;;-0.46;100.00;100852.41;5066448;28;20036;-40
2022/12/10 07:20:37;;;;;;;137.52;36.20;;;;;;;-0.39;100.00;100858.97;5057888;28;20092;-36
2022/12/10 07:23:03;;;;;;;210.55;41.25;;;;;;;-0.43;100.00;100854.00;5058097;28;20032;-37
2022/12/10 07:25:28;;;;;;;220.45;44.15;;;;;;;-0.47;100.00;100856.03;5055354;28;20051;-39
2022/12/10 07:27:53;;;;;;;228.63;39.67;;;;;;;-0.51;100.00;100859.84;5054986;28;20106;-36
2022/12/10 07:30:19;;;;;;;198.93;38.92;;;;;;;-0.47;100.00;100861.31;5052423;28;20519;-37
2022/12/10 07:32:44;;;;;;;199.85;38.03;;;;;;;-0.46;100.00;100863.00;5053526;28;20056;-38
2022/12/10 07:35:09;;;;;;;166.15;40.45;;;;;;;-0.47;100.00;100863.97;5054048;28;20257;-36
2022/12/10 07:37:35;;;;;;;167.35;38.22;;;;;;;-0.43;100.00;100857.47;5052947;28;20451;-37
2022/12/10 07:40:00;;;;;;;215.85;39.08;;;;;;;-0.43;100.00;100859.28;5054347;28;20025;-37
2022/12/10 07:42:25;;;;;;;209.48;34.40;;;;;;;-0.47;100.00;100861.31;5053892;28;20017;-39
2022/12/10 07:44:51;;;;;;;146.60;33.30;;;;;;;-0.43;100.00;100868.06;5052805;28;20040;-37
2022/12/10 07:47:16;;;;;;;180.73;36.88;;;;;;;-0.50;100.00;100864.16;5052000;28;20410;-36
2022/12/10 07:49:42;;;;;;;209.20;37.13;;;;;;;-0.52;100.00;100863.44;5051507;28;20057;-37
2022/12/10 07:52:08;;;;;;;210.93;34.97;;;;;;;-0.50;100.00;100867.66;5050585;28;20432;-36
2022/12/10 07:54:33;;;;;;;266.52;39.75;;;;;;;-0.55;100.00;100882.19;5050056;28;20434;-39
2022/12/10 07:56:58;;;;;;;249.90;34.63;;;;;;;-0.57;100.00;100871.69;5053689;28;20024;-37
2022/12/10 07:59:24;;;;;;;169.48;36.22;;;;;;;-0.51;100.00;100878.34;5052248;28;20031;-36
2022/12/10 08:01:49;;;;;;;180.73;34.53;;;;;;;-0.55;100.00;100874.25;5051926;28;20028;-38
2022/12/10 08:04:14;;;;;;;213.27;36.95;;;;;;;-0.59;100.00;100878.88;5052009;28;20047;-37
2022/12/10 08:06:40;;;;;;;195.27;40.08;;;;;;;-0.60;100.00;100876.38;5052107;28;20468;-36
2022/12/10 08:09:06;;;;;;;209.00;39.55;;;;;;;-0.60;100.00;100886.94;5050679;28;20029;-40
2022/12/10 08:11:32;;;;;;;139.70;36.15;;;;;;;-0.52;100.00;100881.94;5051706;28;20190;-41
2022/12/10 08:13:58;;;;;;;193.35;39.72;;;;;;;-0.39;100.00;100895.13;5052276;28;20551;-39
2022/12/10 08:16:25;;;;;;;165.95;38.28;;;;;;;-0.49;100.00;100895.78;5051670;28;20499;-37
2022/12/10 08:18:51;;;;;;;166.07;36.93;;;;;;;-0.43;100.00;100902.44;5051536;28;20024;-36
2022/12/10 08:21:19;;;;;;;242.70;41.03;;;;;;;-0.38;100.00;100907.41;5051737;28;20279;-36
2022/12/10 08:23:44;;;;;;;162.65;37.38;;;;;;;-0.39;100.00;100911.84;5051836;28;20154;-39
2022/12/10 08:26:12;;;;;;;210.68;40.92;;;;;;;-0.35;100.00;100905.38;5051581;28;20112;-36
2022/12/10 08:28:37;;;;;;;174.55;40.40;;;;;;;-0.39;100.00;100906.56;5051691;28;20061;-36
2022/12/10 08:31:04;;;;;;;204.48;41.47;;;;;;;-0.41;100.00;100908.47;5051273;28;20132;-37
2022/12/10 08:33:29;;;;;;;163.98;40.90;;;;;;;-0.31;100.00;100917.44;5051410;28;20021;-37
2022/12/10 08:36:01;;;;;;;154.48;39.47;;;;;;;-0.32;100.00;100901.66;5049745;28;20035;-36
2022/12/10 08:38:27;;;;;;;154.15;39.17;;;;;;;-0.24;100.00;100917.81;5051215;28;20392;-36
2022/12/10 08:40:52;;;;;;;154.15;37.25;;;;;;;-0.30;100.00;100912.97;5051160;28;20032;-36
2022/12/10 08:43:18;;;;;;;155.05;40.83;;;;;;;-0.28;100.00;100919.84;5052651;28;20025;-38
2022/12/10 08:45:44;;;;;;;173.85;39.08;;;;;;;-0.44;100.00;100924.53;5051933;28;20472;-36
2022/12/10 08:48:09;;;;;;;238.57;42.97;;;;;;;-0.50;100.00;100930.25;5050950;28;20029;-36
2022/12/10 08:50:36;;;;;;;186.90;41.13;;;;;;;-0.47;100.00;100930.06;5050807;28;20318;-37
2022/12/10 08:53:01;;;;;;;212.18;42.10;;;;;;;-0.46;100.00;100926.44;5049958;28;20082;-37
2022/12/10 08:55:27;;;;;;;183.40;40.75;;;;;;;-0.40;100.00;100930.44;5050903;28;20453;-39
2022/12/10 08:57:52;;;;;;;180.02;40.20;;;;;;;-0.35;100.00;100921.22;5050708;28;20122;-39
2022/12/10 09:00:18;;;;;;;169.82;42.08;;;;;;;-0.19;100.00;100928.06;5050606;28;20055;-38
2022/12/10 09:02:44;;;;;;;168.57;39.90;;;;;;;-0.19;100.00;100936.00;5050819;28;20028;-38
2022/12/10 09:05:09;;;;;;;171.85;41.83;;;;;;;-0.15;100.00;100929.56;5049481;28;20025;-39
2022/12/10 09:07:35;;;;;;;174.15;40.33;;;;;;;-0.12;100.00;100939.91;5050558;28;20162;-38
2022/12/10 09:10:00;;;;;;;192.55;42.03;;;;;;;-0.19;100.00;100933.38;5050610;28;20176;-36
2022/12/10 09:12:25;;;;;;;186.50;38.58;;;;;;;-0.18;100.00;100935.06;5050423;28;20536;-41
2022/12/10 09:14:51;;;;;;;193.35;42.88;;;;;;;-0.26;100.00;100935.63;5050712;28;20431;-36
2022/12/10 09:17:16;;;;;;;163.23;40.05;;;;;;;-0.25;100.00;100946.06;5050826;28;20031;-38
2022/12/10 09:19:41;;;;;;;240.95;45.30;;;;;;;-0.36;100.00;100939.88;5050011;28;20092;-36
2022/12/10 09:22:07;;;;;;;168.82;41.70;;;;;;;-0.37;100.00;100936.38;5050422;28;20029;-39
2022/12/10 09:24:32;;;;;;;162.50;37.15;;;;;;;-0.31;100.00;100943.88;5049902;28;20032;-40
2022/12/10 09:26:57;;;;;;;158.60;43.10;;;;;;;-0.27;100.00;100936.56;5049858;28;20045;-39
2022/12/10 09:29:23;;;;;;;169.05;40.42;;;;;;;-0.20;100.00;100944.91;5050380;28;20021;-39
2022/12/10 09:31:51;;;;;;;229.80;42.60;;;;;;;-0.22;100.00;100956.44;5050122;28;20039;-39
2022/12/10 09:34:17;;;;;;;165.00;41.45;;;;;;;-0.17;100.00;100957.91;5050478;28;20028;-38
2022/12/10 09:36:42;;;;;;;174.55;41.60;;;;;;;-0.11;100.00;100960.09;5049676;28;20051;-39
2022/12/10 09:39:08;;;;;;;176.32;43.58;;;;;;;-0.12;100.00;100961.06;5050105;28;20029;-40
2022/12/10 09:41:58;;;;;;;161.55;40.97;;;;;;;-0.19;100.00;100963.31;5049249;28;20029;-40
2022/12/10 09:44:42;;;;;;;167.98;42.05;;;;;;;-0.09;100.00;100961.69;5049441;28;20025;-37
2022/12/10 09:47:09;;;;;;;186.45;44.03;;;;;;;-0.17;100.00;100965.84;5052886;28;20051;-38
2022/12/10 09:50:09;;;;;;;177.10;42.00;;;;;;;-0.11;100.00;100960.09;5052890;28;20029;-40
2022/12/10 09:52:37;;;;;;;176.73;41.15;;;;;;;-0.07;100.00;100957.13;5054173;28;20028;-38
2022/12/10 09:55:10;;;;;;;161.90;41.55;;;;;;;-0.23;100.00;100962.69;5053022;28;20061;-39
2022/12/10 09:57:40;;;;;;;231.02;45.90;;;;;;;-0.33;100.00;100953.72;5054116;28;20029;-37
2022/12/10 10:00:18;;;;;;;199.95;42.63;;;;;;;-0.35;100.00;100960.91;5052867;28;20067;-39
2022/12/10 10:02:43;;;;;;;187.98;44.03;;;;;;;-0.35;100.00;100958.25;5054448;28;20110;-38
2022/12/10 10:05:09;;;;;;;186.80;41.90;;;;;;;-0.42;100.00;100953.50;5054264;28;20092;-38
2022/12/10 10:07:38;;;;;;;192.18;41.92;;;;;;;-0.38;100.00;100966.41;5053649;28;20392;-40
2022/12/10 10:10:07;;;;;;;165.65;41.38;;;;;;;-0.26;100.00;100962.06;5053770;28;20041;-38
2022/12/10 10:12:34;;;;;;;167.73;41.83;;;;;;;-0.11;100.00;100960.94;5052374;28;20029;-39
2022/12/10 10:15:09;;;;;;;185.90;42.00;;;;;;;-0.12;100.00;100956.63;5052387;28;20020;-39
2022/12/10 10:17:36;;;;;;;199.63;42.53;;;;;;;-0.10;100.00;100961.81;5053483;28;20021;-40
2022/12/10 10:20:01;;;;;;;163.35;40.35;;;;;;;-0.05;100.00;100962.34;5052394;28;20025;-39
2022/12/10 10:22:27;;;;;;;170.20;43.17;;;;;;;0.00;100.00;100970.78;5053763;28;20037;-39
2022/12/10 10:24:52;;;;;;;170.30;45.10;;;;;;;0.07;100.00;100971.16;5053298;28;20097;-40
2022/12/10 10:27:29;;;;;;;185.00;41.42;;;;;;;0.04;100.00;100966.09;5051507;28;20049;-38
2022/12/10 10:29:57;;;;;;;155.02;38.35;;;;;;;-0.07;100.00;100972.16;5053471;28;20013;-38
2022/12/10 10:32:25;;;;;;;212.48;45.55;;;;;;;-0.09;100.00;100972.28;5053458;28;20352;-40
2022/12/10 10:34:56;;;;;;;156.18;39.92;;;;;;;-0.02;100.00;100975.34;5053318;28;20200;-40
2022/12/10 10:37:25;;;;;;;169.77;42.22;;;;;;;0.05;100.00;100976.56;5051042;28;20084;-38
2022/12/10 10:39:51;;;;;;;155.80;39.45;;;;;;;0.11;100.00;100976.13;5053190;28;20033;-41
2022/12/10 10:42:28;;;;;;;174.02;43.92;;;;;;;0.13;100.00;100979.53;5053314;28;20025;-38
2022/12/10 10:44:53;;;;;;;167.48;42.97;;;;;;;-0.08;100.00;100983.69;5053394;28;20029;-40
2022/12/10 10:47:31;;;;;;;167.20;41.83;;;;;;;-0.04;100.00;100974.59;5053017;28;20376;-38
2022/12/10 10:49:56;;;;;;;181.65;41.83;;;;;;;0.03;100.00;100980.28;5053199;28;20390;-38
2022/12/10 10:52:22;;;;;;;163.95;39.25;;;;;;;0.12;100.00;100977.81;5062219;28;20033;-39
2022/12/10 10:54:48;;;;;;;162.35;38.20;;;;;;;0.19;100.00;100976.41;5063101;28;20041;-38
2022/12/10 10:57:20;;;;;;;156.30;39.08;;;;;;;0.15;100.00;100980.22;5059298;28;20028;-39
2022/12/10 10:59:45;;;;;;;148.40;36.83;;;;;;;0.11;100.00;100970.00;5051476;28;20480;-39
2022/12/10 11:02:19;;;;;;;174.98;39.58;;;;;;;0.16;100.00;100974.00;5056317;28;20032;-39
2022/12/10 11:04:49;;;;;;;150.75;38.75;;;;;;;0.19;100.00;100971.13;5072667;28;20028;-39